AirNav   Air Wisconsin Up To $57,000 Bonus
 
 1457 users online  

39FL Palm Beach Sheriff's Range Heliport
West Palm Beach, Florida, USA

GOING TO WEST PALM BEACH?


FAA INFORMATION EFFECTIVE 02 JANUARY 2020

Location

FAA Identifier: 39FL
Lat/Long: 26-43-01.2330N 080-11-59.1630W
26-43.020550N 080-11.986050W
26.7170092,-80.1997675
(estimated)
Elevation: 20 ft. / 6 m (estimated)
Variation: 03W (1985)
From city: 4 miles W of WEST PALM BEACH, FL
Time zone: UTC -5 (UTC -4 during Daylight Saving Time)
Zip code: 33411

Heliport Operations

Heliport use: Private use. Permission required prior to landing
Activation date: 06/1981
Control tower: no
ARTCC: MIAMI CENTER
FSS: MIAMI FLIGHT SERVICE STATION
Attendance: UNATNDD
Wind indicator: no
Segmented circle: no

Heliport Communications

WX ASOS at PBI (6 nm E): 123.75 (561-683-2548)
WX AWOS-3 at F45 (8 nm N): 119.975 (561-630-6932)
WX AWOS-3PT at LNA (10 nm SE): 119.925 (561-964-0308)

Nearby radio navigation aids

VOR radial/distance  VOR name  Freq  Var
PBIr293/6.5PALM BEACH VORTAC115.7003W
PHKr099/26.6PAHOKEE VOR/DME115.4000E
FLLr003/38.6FORT LAUDERDALE VOR/DME114.4006W

 
NDB name  Hdg/Dist  Freq  Var  ID
UNITED153/13.640505WUTX ..- - -..-

Heliport Services

Runway Information

Helipad H1

Dimensions: 550 x 150 ft. / 168 x 46 m
Surface: turf, in fair condition
Latitude: 26-43.020550N
Longitude: 080-11.986050W
Elevation: 20.0 ft.
Traffic pattern: leftleft
Markings: none, in fair condition

Heliport Ownership and Management from official FAA records

Ownership: Publicly-owned
Owner: PALM BEACH COUNTY
3228 GUN CLUB RD
WEST PALM BEACH, FL 33416
Phone 305-793-0300
Manager: COUNTY SHERIFF
3228 GUN CLUB RD
WEST PALM BEACH, FL 33416
Phone 407-688-3660

Additional Remarks

A52-H1 MARKED PLINES SOUTH SW AND EAST; TREES SOUTH AND EAST; POLE WEST OF LANDING AREA.
FOR CD CTC PALM BEACH APCH AT 561-275-1430

Instrument Procedures

There are no published instrument procedures at 39FL.

Some nearby airports with instrument procedures:

KPBI - Palm Beach International Airport (6 nm E)
F45 - North Palm Beach County General Aviation Airport (8 nm N)
KLNA - Palm Beach County Park Airport (10 nm SE)
06FA - William P Gwinn Airport (13 nm NW)
KBCT - Boca Raton Airport (21 nm S)
 
Loc | Ops | Rwys | IFR | FBO | Links
Com | Nav | Svcs | Stats | Notes

Reliance Aviation
AirBoss

 
Area around 39FL (Palm Beach Sheriff's Range Heliport)
 
Road maps at: MapQuest Bing Google
 
Aerial photo
No photo
 
Sectional chart

 
Airport distance calculator
Flying to Palm Beach Sheriff's Range Heliport? Find the distance to fly.

From to 39FL

Sunrise and sunset
Times for 21-Jan-2020
 Local
(UTC-5)
 Zulu
(UTC)
Morning civil twilight06:4611:46
Sunrise07:1112:11
Sunset17:5322:53
Evening civil twilight18:1823:18

Current date and time
Zulu (UTC)  21-Jan-2020 15:22:31
Local (UTC-5)  21-Jan-2020 10:22:31
 
METAR
KPBI 
6nm E 
211453Z 32014KT 10SM FEW050 17/09 A3013 RMK AO2 SLP201 T01670094 51010
KF45 
8nm N 
211450Z AUTO 33009G16KT 10SM CLR 15/09 A3016 RMK AO2 TSNO
KLNA 
10nm SE 
211455Z AUTO 31012G15KT 240V010 CLR 16/10 A3013 RMK AO2 6//// T01600101 PWINO PNO
TAF
KPBI 
6nm E 
211131Z 2112/2212 32010KT P6SM SCT250 FM211400 33012G20KT P6SM FEW050 SCT250 FM220200 35014KT P6SM FEW050 SCT250
NOTAMs
Click for the latest NOTAMs
NOTAMs are issued by the DoD/FAA and will open in a separate window not controlled by AirNav.

 

 
 

Would you like to see your business listed on this page?

 If your business provides an interesting product or service to pilots, flight crews, aircraft, or users of the Palm Beach Sheriff's Range Heliport, you should consider listing it here.  To start the listing process, click on the button below
 
Add a business
 

Other Pages about Palm Beach Sheriff's Range Heliport

Update a link
 
Copyright © AirNav, LLC. All rights reserved. Privacy Policy  Contact